sensor_id;sensor_type;location;lat;lon;timestamp;temperature;humidity
60033;DHT22;45905;50.570;10.428;2022-09-02T00:01:53;13.70;66.80
60033;DHT22;45905;50.570;10.428;2022-09-02T00:04:23;13.60;67.50
60033;DHT22;45905;50.570;10.428;2022-09-02T00:06:53;13.60;67.40
60033;DHT22;45905;50.570;10.428;2022-09-02T00:09:22;13.60;66.90
60033;DHT22;45905;50.570;10.428;2022-09-02T00:11:52;13.50;66.90
60033;DHT22;45905;50.570;10.428;2022-09-02T00:14:26;13.50;66.70
60033;DHT22;45905;50.570;10.428;2022-09-02T00:16:55;13.50;66.30
60033;DHT22;45905;50.570;10.428;2022-09-02T00:19:27;13.50;66.60
60033;DHT22;45905;50.570;10.428;2022-09-02T00:21:56;13.40;66.80
60033;DHT22;45905;50.570;10.428;2022-09-02T00:24:24;13.40;67.00
60033;DHT22;45905;50.570;10.428;2022-09-02T00:26:52;13.30;67.30
60033;DHT22;45905;50.570;10.428;2022-09-02T00:29:24;13.30;67.50
60033;DHT22;45905;50.570;10.428;2022-09-02T00:31:52;13.30;67.70
60033;DHT22;45905;50.570;10.428;2022-09-02T00:34:20;13.20;67.50
60033;DHT22;45905;50.570;10.428;2022-09-02T00:36:47;13.20;67.20
60033;DHT22;45905;50.570;10.428;2022-09-02T00:39:14;13.20;66.90
60033;DHT22;45905;50.570;10.428;2022-09-02T00:41:43;13.10;67.70
60033;DHT22;45905;50.570;10.428;2022-09-02T00:44:14;13.10;68.50
60033;DHT22;45905;50.570;10.428;2022-09-02T00:46:43;13.10;68.70
60033;DHT22;45905;50.570;10.428;2022-09-02T00:49:32;13.00;68.70
60033;DHT22;45905;50.570;10.428;2022-09-02T00:52:16;13.00;69.00
60033;DHT22;45905;50.570;10.428;2022-09-02T00:54:50;13.00;69.00
60033;DHT22;45905;50.570;10.428;2022-09-02T00:57:25;13.00;68.70
60033;DHT22;45905;50.570;10.428;2022-09-02T01:02:39;12.90;69.40
60033;DHT22;45905;50.570;10.428;2022-09-02T01:05:10;12.90;70.60
60033;DHT22;45905;50.570;10.428;2022-09-02T01:07:39;12.90;70.80
60033;DHT22;45905;50.570;10.428;2022-09-02T01:10:19;12.90;70.50
60033;DHT22;45905;50.570;10.428;2022-09-02T01:12:57;12.90;70.80
60033;DHT22;45905;50.570;10.428;2022-09-02T01:15:25;12.90;70.80
60033;DHT22;45905;50.570;10.428;2022-09-02T01:17:53;12.90;71.00
60033;DHT22;45905;50.570;10.428;2022-09-02T01:20:23;12.90;71.40
60033;DHT22;45905;50.570;10.428;2022-09-02T01:22:52;12.90;71.20
60033;DHT22;45905;50.570;10.428;2022-09-02T01:25:24;12.90;71.20
60033;DHT22;45905;50.570;10.428;2022-09-02T01:28:07;12.90;70.50
60033;DHT22;45905;50.570;10.428;2022-09-02T01:30:41;12.80;71.00
60033;DHT22;45905;50.570;10.428;2022-09-02T01:33:11;12.80;71.50
60033;DHT22;45905;50.570;10.428;2022-09-02T01:35:39;12.80;71.20
60033;DHT22;45905;50.570;10.428;2022-09-02T01:38:06;12.80;71.50
60033;DHT22;45905;50.570;10.428;2022-09-02T01:40:35;12.80;71.90
60033;DHT22;45905;50.570;10.428;2022-09-02T01:43:10;12.70;71.50
60033;DHT22;45905;50.570;10.428;2022-09-02T01:45:43;12.70;71.60
60033;DHT22;45905;50.570;10.428;2022-09-02T01:48:12;12.70;71.00
60033;DHT22;45905;50.570;10.428;2022-09-02T01:51:00;12.70;71.20
60033;DHT22;45905;50.570;10.428;2022-09-02T01:53:29;12.60;71.40
60033;DHT22;45905;50.570;10.428;2022-09-02T01:55:58;12.60;71.50
60033;DHT22;45905;50.570;10.428;2022-09-02T01:58:27;12.60;71.50
60033;DHT22;45905;50.570;10.428;2022-09-02T02:00:54;12.50;71.50
60033;DHT22;45905;50.570;10.428;2022-09-02T02:03:22;12.50;70.70
60033;DHT22;45905;50.570;10.428;2022-09-02T02:05:51;12.50;71.20
60033;DHT22;45905;50.570;10.428;2022-09-02T02:08:19;12.40;71.60
60033;DHT22;45905;50.570;10.428;2022-09-02T02:10:47;12.40;71.30
60033;DHT22;45905;50.570;10.428;2022-09-02T02:13:15;12.40;72.00
60033;DHT22;45905;50.570;10.428;2022-09-02T02:15:43;12.40;71.90
60033;DHT22;45905;50.570;10.428;2022-09-02T02:18:11;12.30;71.50
60033;DHT22;45905;50.570;10.428;2022-09-02T02:20:38;12.30;71.90
60033;DHT22;45905;50.570;10.428;2022-09-02T02:23:10;12.20;72.30
60033;DHT22;45905;50.570;10.428;2022-09-02T02:25:37;12.20;72.20
60033;DHT22;45905;50.570;10.428;2022-09-02T02:28:05;12.20;72.20
60033;DHT22;45905;50.570;10.428;2022-09-02T02:30:32;12.20;72.20
60033;DHT22;45905;50.570;10.428;2022-09-02T02:33:00;12.10;72.30
60033;DHT22;45905;50.570;10.428;2022-09-02T02:35:28;12.10;72.20
60033;DHT22;45905;50.570;10.428;2022-09-02T02:37:55;12.00;72.40
60033;DHT22;45905;50.570;10.428;2022-09-02T02:40:29;12.00;72.60
60033;DHT22;45905;50.570;10.428;2022-09-02T02:42:57;12.00;73.30
60033;DHT22;45905;50.570;10.428;2022-09-02T02:45:24;12.00;73.50
60033;DHT22;45905;50.570;10.428;2022-09-02T02:47:52;11.90;73.20
60033;DHT22;45905;50.570;10.428;2022-09-02T02:50:22;11.90;72.50
60033;DHT22;45905;50.570;10.428;2022-09-02T02:52:51;11.90;72.40
60033;DHT22;45905;50.570;10.428;2022-09-02T02:55:22;11.80;72.70
60033;DHT22;45905;50.570;10.428;2022-09-02T02:57:51;11.70;72.90
60033;DHT22;45905;50.570;10.428;2022-09-02T03:00:31;11.80;73.50
60033;DHT22;45905;50.570;10.428;2022-09-02T03:03:04;11.70;73.60
60033;DHT22;45905;50.570;10.428;2022-09-02T03:05:35;11.70;73.90
60033;DHT22;45905;50.570;10.428;2022-09-02T03:08:06;11.70;73.80
60033;DHT22;45905;50.570;10.428;2022-09-02T03:10:36;11.70;73.60
60033;DHT22;45905;50.570;10.428;2022-09-02T03:13:05;11.70;73.40
60033;DHT22;45905;50.570;10.428;2022-09-02T03:15:32;11.60;73.10
60033;DHT22;45905;50.570;10.428;2022-09-02T03:18:00;11.60;73.20
60033;DHT22;45905;50.570;10.428;2022-09-02T03:20:27;11.50;72.60
60033;DHT22;45905;50.570;10.428;2022-09-02T03:22:58;11.60;72.90
60033;DHT22;45905;50.570;10.428;2022-09-02T03:25:29;11.50;74.40
60033;DHT22;45905;50.570;10.428;2022-09-02T03:28:09;11.50;74.40
60033;DHT22;45905;50.570;10.428;2022-09-02T03:30:39;11.50;74.90
60033;DHT22;45905;50.570;10.428;2022-09-02T03:33:08;11.40;74.60
60033;DHT22;45905;50.570;10.428;2022-09-02T03:35:40;11.40;74.90
60033;DHT22;45905;50.570;10.428;2022-09-02T03:38:10;11.40;75.60
60033;DHT22;45905;50.570;10.428;2022-09-02T03:40:38;11.40;75.00
60033;DHT22;45905;50.570;10.428;2022-09-02T03:43:06;11.40;74.70
60033;DHT22;45905;50.570;10.428;2022-09-02T03:45:35;11.40;75.30
60033;DHT22;45905;50.570;10.428;2022-09-02T03:48:04;11.40;75.40
60033;DHT22;45905;50.570;10.428;2022-09-02T03:50:37;11.40;74.70
60033;DHT22;45905;50.570;10.428;2022-09-02T03:53:09;11.40;74.60
60033;DHT22;45905;50.570;10.428;2022-09-02T03:55:47;11.40;74.20
60033;DHT22;45905;50.570;10.428;2022-09-02T03:58:17;11.40;74.10
60033;DHT22;45905;50.570;10.428;2022-09-02T04:00:50;11.40;74.00
60033;DHT22;45905;50.570;10.428;2022-09-02T04:03:20;11.40;74.00
60033;DHT22;45905;50.570;10.428;2022-09-02T04:05:49;11.40;74.50
60033;DHT22;45905;50.570;10.428;2022-09-02T04:08:21;11.40;75.30
60033;DHT22;45905;50.570;10.428;2022-09-02T04:10:50;11.40;76.50
60033;DHT22;45905;50.570;10.428;2022-09-02T04:13:18;11.40;76.80
60033;DHT22;45905;50.570;10.428;2022-09-02T04:15:46;11.40;76.30
60033;DHT22;45905;50.570;10.428;2022-09-02T04:18:18;11.40;76.20
60033;DHT22;45905;50.570;10.428;2022-09-02T04:20:45;11.40;76.30
60033;DHT22;45905;50.570;10.428;2022-09-02T04:23:14;11.50;76.40
60033;DHT22;45905;50.570;10.428;2022-09-02T04:25:43;11.50;76.60
60033;DHT22;45905;50.570;10.428;2022-09-02T04:28:13;11.50;76.70
60033;DHT22;45905;50.570;10.428;2022-09-02T04:30:41;11.50;76.60
60033;DHT22;45905;50.570;10.428;2022-09-02T04:33:10;11.60;76.80
60033;DHT22;45905;50.570;10.428;2022-09-02T04:35:43;11.60;76.30
60033;DHT22;45905;50.570;10.428;2022-09-02T04:38:15;11.60;76.00
60033;DHT22;45905;50.570;10.428;2022-09-02T04:40:44;11.60;75.70
60033;DHT22;45905;50.570;10.428;2022-09-02T04:43:14;11.60;75.90
60033;DHT22;45905;50.570;10.428;2022-09-02T04:45:44;11.60;76.70
60033;DHT22;45905;50.570;10.428;2022-09-02T04:48:14;11.60;76.70
60033;DHT22;45905;50.570;10.428;2022-09-02T04:50:42;11.70;76.50
60033;DHT22;45905;50.570;10.428;2022-09-02T04:53:11;11.60;76.40
60033;DHT22;45905;50.570;10.428;2022-09-02T04:55:42;11.60;76.30
60033;DHT22;45905;50.570;10.428;2022-09-02T04:58:11;11.60;76.30
60033;DHT22;45905;50.570;10.428;2022-09-02T05:00:40;11.60;76.00
60033;DHT22;45905;50.570;10.428;2022-09-02T05:03:10;11.70;75.90
60033;DHT22;45905;50.570;10.428;2022-09-02T05:05:41;11.70;76.50
60033;DHT22;45905;50.570;10.428;2022-09-02T05:08:10;11.60;76.70
60033;DHT22;45905;50.570;10.428;2022-09-02T05:10:40;11.70;76.60
60033;DHT22;45905;50.570;10.428;2022-09-02T05:13:11;11.70;77.10
60033;DHT22;45905;50.570;10.428;2022-09-02T05:15:39;11.70;77.20
60033;DHT22;45905;50.570;10.428;2022-09-02T05:18:08;11.70;77.30
60033;DHT22;45905;50.570;10.428;2022-09-02T05:20:38;11.80;77.50
60033;DHT22;45905;50.570;10.428;2022-09-02T05:23:06;11.80;77.60
60033;DHT22;45905;50.570;10.428;2022-09-02T05:25:36;11.90;77.40
60033;DHT22;45905;50.570;10.428;2022-09-02T05:28:05;11.90;77.00
60033;DHT22;45905;50.570;10.428;2022-09-02T05:30:38;11.90;76.40
60033;DHT22;45905;50.570;10.428;2022-09-02T05:33:09;11.90;76.30
60033;DHT22;45905;50.570;10.428;2022-09-02T05:35:49;11.90;76.20
60033;DHT22;45905;50.570;10.428;2022-09-02T05:38:19;11.90;76.30
60033;DHT22;45905;50.570;10.428;2022-09-02T05:40:47;11.90;76.40
60033;DHT22;45905;50.570;10.428;2022-09-02T05:43:14;11.90;76.40
60033;DHT22;45905;50.570;10.428;2022-09-02T05:45:42;12.00;76.70
60033;DHT22;45905;50.570;10.428;2022-09-02T05:48:10;12.00;77.40
60033;DHT22;45905;50.570;10.428;2022-09-02T05:50:56;12.10;77.50
60033;DHT22;45905;50.570;10.428;2022-09-02T05:53:25;12.10;77.30
60033;DHT22;45905;50.570;10.428;2022-09-02T05:55:53;12.20;77.40
60033;DHT22;45905;50.570;10.428;2022-09-02T05:58:22;12.20;77.20
60033;DHT22;45905;50.570;10.428;2022-09-02T06:00:51;12.30;77.20
60033;DHT22;45905;50.570;10.428;2022-09-02T06:03:20;12.30;76.90
60033;DHT22;45905;50.570;10.428;2022-09-02T06:05:56;12.30;76.80
60033;DHT22;45905;50.570;10.428;2022-09-02T06:08:31;12.40;76.60
60033;DHT22;45905;50.570;10.428;2022-09-02T06:11:00;12.40;76.20
60033;DHT22;45905;50.570;10.428;2022-09-02T06:13:34;12.40;76.10
60033;DHT22;45905;50.570;10.428;2022-09-02T06:16:04;12.40;76.10
60033;DHT22;45905;50.570;10.428;2022-09-02T06:18:33;12.40;76.40
60033;DHT22;45905;50.570;10.428;2022-09-02T06:21:03;12.40;76.50
60033;DHT22;45905;50.570;10.428;2022-09-02T06:23:37;12.50;76.70
60033;DHT22;45905;50.570;10.428;2022-09-02T06:26:08;12.60;76.70
60033;DHT22;45905;50.570;10.428;2022-09-02T06:28:37;12.70;76.50
60033;DHT22;45905;50.570;10.428;2022-09-02T06:31:10;12.70;76.40
60033;DHT22;45905;50.570;10.428;2022-09-02T06:33:44;12.80;76.50
60033;DHT22;45905;50.570;10.428;2022-09-02T06:36:18;12.80;76.30
60033;DHT22;45905;50.570;10.428;2022-09-02T06:38:48;12.90;76.10
60033;DHT22;45905;50.570;10.428;2022-09-02T06:41:19;12.90;76.00
60033;DHT22;45905;50.570;10.428;2022-09-02T06:43:51;13.00;76.00
60033;DHT22;45905;50.570;10.428;2022-09-02T06:46:24;13.00;76.40
60033;DHT22;45905;50.570;10.428;2022-09-02T06:48:56;13.10;75.70
60033;DHT22;45905;50.570;10.428;2022-09-02T06:51:28;13.10;75.50
60033;DHT22;45905;50.570;10.428;2022-09-02T06:54:00;13.20;75.40
60033;DHT22;45905;50.570;10.428;2022-09-02T06:56:33;13.20;75.10
60033;DHT22;45905;50.570;10.428;2022-09-02T06:59:01;13.30;75.10
60033;DHT22;45905;50.570;10.428;2022-09-02T07:01:40;13.40;75.10
60033;DHT22;45905;50.570;10.428;2022-09-02T07:04:09;13.40;74.90
60033;DHT22;45905;50.570;10.428;2022-09-02T07:06:55;13.40;74.70
60033;DHT22;45905;50.570;10.428;2022-09-02T07:09:27;13.40;74.60
60033;DHT22;45905;50.570;10.428;2022-09-02T07:12:05;13.50;74.60
60033;DHT22;45905;50.570;10.428;2022-09-02T07:14:41;13.50;74.40
60033;DHT22;45905;50.570;10.428;2022-09-02T07:17:13;13.60;74.60
60033;DHT22;45905;50.570;10.428;2022-09-02T07:19:51;13.50;74.40
60033;DHT22;45905;50.570;10.428;2022-09-02T07:22:22;13.70;74.40
60033;DHT22;45905;50.570;10.428;2022-09-02T07:24:49;13.70;74.10
60033;DHT22;45905;50.570;10.428;2022-09-02T07:27:16;13.80;74.10
60033;DHT22;45905;50.570;10.428;2022-09-02T07:29:48;13.80;74.00
60033;DHT22;45905;50.570;10.428;2022-09-02T07:32:17;13.90;74.10
60033;DHT22;45905;50.570;10.428;2022-09-02T07:34:46;13.90;73.80
60033;DHT22;45905;50.570;10.428;2022-09-02T07:37:14;14.00;73.90
60033;DHT22;45905;50.570;10.428;2022-09-02T07:39:42;14.00;73.60
60033;DHT22;45905;50.570;10.428;2022-09-02T07:42:13;14.10;73.60
60033;DHT22;45905;50.570;10.428;2022-09-02T07:44:41;14.10;73.80
60033;DHT22;45905;50.570;10.428;2022-09-02T07:47:08;14.20;73.70
60033;DHT22;45905;50.570;10.428;2022-09-02T07:49:39;14.20;73.00
60033;DHT22;45905;50.570;10.428;2022-09-02T07:52:27;14.30;72.40
60033;DHT22;45905;50.570;10.428;2022-09-02T07:54:55;14.40;71.90
60033;DHT22;45905;50.570;10.428;2022-09-02T07:57:23;14.50;71.60
60033;DHT22;45905;50.570;10.428;2022-09-02T07:59:51;14.60;71.60
60033;DHT22;45905;50.570;10.428;2022-09-02T08:02:18;14.70;71.70
60033;DHT22;45905;50.570;10.428;2022-09-02T08:04:45;14.70;71.30
60033;DHT22;45905;50.570;10.428;2022-09-02T08:07:13;14.90;70.90
60033;DHT22;45905;50.570;10.428;2022-09-02T08:09:42;15.00;70.60
60033;DHT22;45905;50.570;10.428;2022-09-02T08:12:09;15.10;70.10
60033;DHT22;45905;50.570;10.428;2022-09-02T08:14:36;15.20;69.70
60033;DHT22;45905;50.570;10.428;2022-09-02T08:17:04;15.30;69.60
60033;DHT22;45905;50.570;10.428;2022-09-02T08:19:31;15.50;69.50
60033;DHT22;45905;50.570;10.428;2022-09-02T08:22:05;15.60;67.30
60033;DHT22;45905;50.570;10.428;2022-09-02T08:24:32;15.70;67.20
60033;DHT22;45905;50.570;10.428;2022-09-02T08:26:59;15.80;66.50
60033;DHT22;45905;50.570;10.428;2022-09-02T08:29:27;15.80;65.70
60033;DHT22;45905;50.570;10.428;2022-09-02T08:31:55;15.90;65.10
60033;DHT22;45905;50.570;10.428;2022-09-02T08:34:22;16.00;64.00
60033;DHT22;45905;50.570;10.428;2022-09-02T08:36:49;16.10;63.80
60033;DHT22;45905;50.570;10.428;2022-09-02T08:39:23;16.20;63.50
60033;DHT22;45905;50.570;10.428;2022-09-02T08:42:11;16.30;62.30
60033;DHT22;45905;50.570;10.428;2022-09-02T08:44:46;16.50;60.10
60033;DHT22;45905;50.570;10.428;2022-09-02T08:47:24;16.60;60.20
60033;DHT22;45905;50.570;10.428;2022-09-02T08:49:59;16.70;60.60
60033;DHT22;45905;50.570;10.428;2022-09-02T08:52:38;16.70;59.60
60033;DHT22;45905;50.570;10.428;2022-09-02T08:55:11;16.80;59.40
60033;DHT22;45905;50.570;10.428;2022-09-02T08:57:44;16.90;59.40
60033;DHT22;45905;50.570;10.428;2022-09-02T09:00:12;17.00;57.90
60033;DHT22;45905;50.570;10.428;2022-09-02T09:03:17;17.20;58.50
60033;DHT22;45905;50.570;10.428;2022-09-02T09:06:08;17.30;58.30
60033;DHT22;45905;50.570;10.428;2022-09-02T09:08:46;17.40;57.10
60033;DHT22;45905;50.570;10.428;2022-09-02T09:11:34;17.40;57.20
60033;DHT22;45905;50.570;10.428;2022-09-02T09:17:07;17.70;53.80
60033;DHT22;45905;50.570;10.428;2022-09-02T09:20:18;17.80;53.60
60033;DHT22;45905;50.570;10.428;2022-09-02T09:22:48;18.00;54.80
60033;DHT22;45905;50.570;10.428;2022-09-02T09:25:18;18.00;54.00
60033;DHT22;45905;50.570;10.428;2022-09-02T09:27:45;18.20;50.90
60033;DHT22;45905;50.570;10.428;2022-09-02T09:30:12;18.20;50.60
60033;DHT22;45905;50.570;10.428;2022-09-02T09:32:54;18.40;50.10
60033;DHT22;45905;50.570;10.428;2022-09-02T09:35:27;18.50;50.10
60033;DHT22;45905;50.570;10.428;2022-09-02T09:38:31;18.60;50.40
60033;DHT22;45905;50.570;10.428;2022-09-02T09:41:20;18.70;49.90
60033;DHT22;45905;50.570;10.428;2022-09-02T09:43:49;18.80;49.60
60033;DHT22;45905;50.570;10.428;2022-09-02T09:46:28;18.90;50.40
60033;DHT22;45905;50.570;10.428;2022-09-02T09:48:59;18.90;50.60
60033;DHT22;45905;50.570;10.428;2022-09-02T09:51:27;19.10;49.10
60033;DHT22;45905;50.570;10.428;2022-09-02T09:54:14;19.10;49.60
60033;DHT22;45905;50.570;10.428;2022-09-02T09:56:42;19.30;47.20
60033;DHT22;45905;50.570;10.428;2022-09-02T09:59:34;19.40;48.10
60033;DHT22;45905;50.570;10.428;2022-09-02T10:02:21;19.50;47.90
60033;DHT22;45905;50.570;10.428;2022-09-02T10:04:52;19.60;48.30
60033;DHT22;45905;50.570;10.428;2022-09-02T10:07:56;19.70;48.30
60033;DHT22;45905;50.570;10.428;2022-09-02T10:10:27;19.80;48.20
60033;DHT22;45905;50.570;10.428;2022-09-02T10:13:17;19.90;48.70
60033;DHT22;45905;50.570;10.428;2022-09-02T10:19:26;20.00;48.00
60033;DHT22;45905;50.570;10.428;2022-09-02T10:22:36;20.10;47.10
60033;DHT22;45905;50.570;10.428;2022-09-02T10:28:33;20.20;47.80
60033;DHT22;45905;50.570;10.428;2022-09-02T10:31:45;20.20;47.90
60033;DHT22;45905;50.570;10.428;2022-09-02T10:34:50;20.20;47.70
60033;DHT22;45905;50.570;10.428;2022-09-02T10:37:51;20.30;47.50
60033;DHT22;45905;50.570;10.428;2022-09-02T10:44:01;20.70;46.60
60033;DHT22;45905;50.570;10.428;2022-09-02T10:50:27;20.90;46.30
60033;DHT22;45905;50.570;10.428;2022-09-02T10:53:37;20.90;46.20
60033;DHT22;45905;50.570;10.428;2022-09-02T10:56:13;20.90;47.30
60033;DHT22;45905;50.570;10.428;2022-09-02T10:58:55;20.90;47.30
60033;DHT22;45905;50.570;10.428;2022-09-02T11:01:51;20.90;46.10
60033;DHT22;45905;50.570;10.428;2022-09-02T11:07:10;21.10;44.80
60033;DHT22;45905;50.570;10.428;2022-09-02T11:09:49;21.30;45.80
60033;DHT22;45905;50.570;10.428;2022-09-02T11:12:30;21.40;46.00
60033;DHT22;45905;50.570;10.428;2022-09-02T11:15:21;21.40;45.50
60033;DHT22;45905;50.570;10.428;2022-09-02T11:18:13;21.50;44.80
60033;DHT22;45905;50.570;10.428;2022-09-02T11:21:05;21.50;44.30
60033;DHT22;45905;50.570;10.428;2022-09-02T11:23:52;21.60;44.00
60033;DHT22;45905;50.570;10.428;2022-09-02T11:26:59;21.60;43.70
60033;DHT22;45905;50.570;10.428;2022-09-02T11:30:03;21.50;43.10
60033;DHT22;45905;50.570;10.428;2022-09-02T11:32:48;21.40;43.20
60033;DHT22;45905;50.570;10.428;2022-09-02T11:35:27;21.40;44.10
60033;DHT22;45905;50.570;10.428;2022-09-02T11:38:03;21.40;44.10
60033;DHT22;45905;50.570;10.428;2022-09-02T11:55:09;21.50;43.70
60033;DHT22;45905;50.570;10.428;2022-09-02T11:57:45;21.60;44.60
60033;DHT22;45905;50.570;10.428;2022-09-02T12:03:27;21.60;43.20
60033;DHT22;45905;50.570;10.428;2022-09-02T12:06:18;21.50;43.70
60033;DHT22;45905;50.570;10.428;2022-09-02T12:17:04;21.50;43.70
60033;DHT22;45905;50.570;10.428;2022-09-02T12:24:51;21.60;44.60
60033;DHT22;45905;50.570;10.428;2022-09-02T12:27:35;21.70;44.50
60033;DHT22;45905;50.570;10.428;2022-09-02T12:30:06;21.70;43.80
60033;DHT22;45905;50.570;10.428;2022-09-02T12:35:52;21.80;43.80
60033;DHT22;45905;50.570;10.428;2022-09-02T12:38:25;21.80;42.00
60033;DHT22;45905;50.570;10.428;2022-09-02T12:41:14;21.80;42.70
60033;DHT22;45905;50.570;10.428;2022-09-02T12:47:30;22.10;44.30
60033;DHT22;45905;50.570;10.428;2022-09-02T12:50:07;22.30;42.90
60033;DHT22;45905;50.570;10.428;2022-09-02T12:52:50;22.50;41.10
60033;DHT22;45905;50.570;10.428;2022-09-02T12:55:22;22.70;40.20
60033;DHT22;45905;50.570;10.428;2022-09-02T12:58:11;22.80;42.00
60033;DHT22;45905;50.570;10.428;2022-09-02T13:01:15;23.00;40.50
60033;DHT22;45905;50.570;10.428;2022-09-02T13:04:49;23.10;39.70
60033;DHT22;45905;50.570;10.428;2022-09-02T13:10:42;23.40;41.30
60033;DHT22;45905;50.570;10.428;2022-09-02T13:17:15;23.90;37.70
60033;DHT22;45905;50.570;10.428;2022-09-02T13:23:14;24.20;37.20
60033;DHT22;45905;50.570;10.428;2022-09-02T13:32:31;24.80;35.10
60033;DHT22;45905;50.570;10.428;2022-09-02T13:35:07;24.80;35.90
60033;DHT22;45905;50.570;10.428;2022-09-02T13:37:57;24.90;36.00
60033;DHT22;45905;50.570;10.428;2022-09-02T13:40:35;25.00;37.40
60033;DHT22;45905;50.570;10.428;2022-09-02T13:43:22;25.20;37.00
60033;DHT22;45905;50.570;10.428;2022-09-02T13:45:54;25.40;35.60
60033;DHT22;45905;50.570;10.428;2022-09-02T13:48:29;25.50;36.10
60033;DHT22;45905;50.570;10.428;2022-09-02T13:51:13;25.70;35.10
60033;DHT22;45905;50.570;10.428;2022-09-02T13:53:43;25.80;35.50
60033;DHT22;45905;50.570;10.428;2022-09-02T13:56:33;25.90;34.30
60033;DHT22;45905;50.570;10.428;2022-09-02T13:59:01;26.00;34.60
60033;DHT22;45905;50.570;10.428;2022-09-02T14:01:32;26.20;34.20
60033;DHT22;45905;50.570;10.428;2022-09-02T14:04:20;26.30;35.00
60033;DHT22;45905;50.570;10.428;2022-09-02T14:06:50;26.60;36.60
60033;DHT22;45905;50.570;10.428;2022-09-02T14:09:23;26.80;34.90
60033;DHT22;45905;50.570;10.428;2022-09-02T14:11:53;26.90;32.90
60033;DHT22;45905;50.570;10.428;2022-09-02T14:14:23;26.90;33.90
60033;DHT22;45905;50.570;10.428;2022-09-02T14:16:51;27.00;32.50
60033;DHT22;45905;50.570;10.428;2022-09-02T14:21:50;27.00;32.50
60033;DHT22;45905;50.570;10.428;2022-09-02T14:24:30;27.10;32.00
60033;DHT22;45905;50.570;10.428;2022-09-02T14:27:16;27.10;32.10
60033;DHT22;45905;50.570;10.428;2022-09-02T14:29:48;27.20;32.60
60033;DHT22;45905;50.570;10.428;2022-09-02T14:32:22;27.30;32.90
60033;DHT22;45905;50.570;10.428;2022-09-02T14:37:54;27.40;32.70
60033;DHT22;45905;50.570;10.428;2022-09-02T14:40:38;27.40;33.80
60033;DHT22;45905;50.570;10.428;2022-09-02T14:43:14;27.40;33.40
60033;DHT22;45905;50.570;10.428;2022-09-02T14:45:46;27.40;33.50
60033;DHT22;45905;50.570;10.428;2022-09-02T14:48:18;27.30;33.50
60033;DHT22;45905;50.570;10.428;2022-09-02T14:50:49;27.10;33.70
60033;DHT22;45905;50.570;10.428;2022-09-02T14:53:28;27.00;33.30
60033;DHT22;45905;50.570;10.428;2022-09-02T14:55:56;26.80;32.40
60033;DHT22;45905;50.570;10.428;2022-09-02T14:58:26;26.50;33.30
60033;DHT22;45905;50.570;10.428;2022-09-02T15:00:59;26.40;34.00
60033;DHT22;45905;50.570;10.428;2022-09-02T15:03:28;26.30;33.80
60033;DHT22;45905;50.570;10.428;2022-09-02T15:05:57;26.30;34.10
60033;DHT22;45905;50.570;10.428;2022-09-02T15:08:24;26.30;33.60
60033;DHT22;45905;50.570;10.428;2022-09-02T15:10:52;26.30;33.90
60033;DHT22;45905;50.570;10.428;2022-09-02T15:13:33;26.30;33.60
60033;DHT22;45905;50.570;10.428;2022-09-02T15:16:01;26.30;34.50
60033;DHT22;45905;50.570;10.428;2022-09-02T15:18:29;26.40;33.40
60033;DHT22;45905;50.570;10.428;2022-09-02T15:20:56;26.40;33.40
60033;DHT22;45905;50.570;10.428;2022-09-02T15:23:24;26.40;33.70
60033;DHT22;45905;50.570;10.428;2022-09-02T15:25:53;26.40;33.70
60033;DHT22;45905;50.570;10.428;2022-09-02T15:28:20;26.40;33.70
60033;DHT22;45905;50.570;10.428;2022-09-02T15:30:47;26.50;33.50
60033;DHT22;45905;50.570;10.428;2022-09-02T15:33:14;26.50;33.60
60033;DHT22;45905;50.570;10.428;2022-09-02T15:35:43;26.50;34.00
60033;DHT22;45905;50.570;10.428;2022-09-02T15:38:12;26.60;33.90
60033;DHT22;45905;50.570;10.428;2022-09-02T15:40:39;26.60;34.10
60033;DHT22;45905;50.570;10.428;2022-09-02T15:43:06;26.60;34.60
60033;DHT22;45905;50.570;10.428;2022-09-02T15:45:33;26.50;33.40
60033;DHT22;45905;50.570;10.428;2022-09-02T15:48:05;26.40;33.60
60033;DHT22;45905;50.570;10.428;2022-09-02T15:50:32;26.30;33.60
60033;DHT22;45905;50.570;10.428;2022-09-02T15:53:00;26.20;34.20
60033;DHT22;45905;50.570;10.428;2022-09-02T15:55:31;26.20;33.90
60033;DHT22;45905;50.570;10.428;2022-09-02T15:57:59;26.10;33.20
60033;DHT22;45905;50.570;10.428;2022-09-02T16:00:26;26.00;33.80
60033;DHT22;45905;50.570;10.428;2022-09-02T16:02:54;25.90;32.90
60033;DHT22;45905;50.570;10.428;2022-09-02T16:05:23;25.80;33.60
60033;DHT22;45905;50.570;10.428;2022-09-02T16:07:50;25.80;34.50
60033;DHT22;45905;50.570;10.428;2022-09-02T16:10:21;25.80;34.80
60033;DHT22;45905;50.570;10.428;2022-09-02T16:12:48;25.80;35.20
60033;DHT22;45905;50.570;10.428;2022-09-02T16:15:15;25.90;34.30
60033;DHT22;45905;50.570;10.428;2022-09-02T16:17:42;25.90;33.90
60033;DHT22;45905;50.570;10.428;2022-09-02T16:20:10;25.80;33.80
60033;DHT22;45905;50.570;10.428;2022-09-02T16:22:37;25.80;34.50
60033;DHT22;45905;50.570;10.428;2022-09-02T16:25:05;25.80;34.60
60033;DHT22;45905;50.570;10.428;2022-09-02T16:27:32;25.80;34.80
60033;DHT22;45905;50.570;10.428;2022-09-02T16:30:18;25.80;35.00
60033;DHT22;45905;50.570;10.428;2022-09-02T16:32:46;25.70;33.90
60033;DHT22;45905;50.570;10.428;2022-09-02T16:35:16;25.60;34.50
60033;DHT22;45905;50.570;10.428;2022-09-02T16:37:43;25.50;34.60
60033;DHT22;45905;50.570;10.428;2022-09-02T16:40:10;25.50;34.90
60033;DHT22;45905;50.570;10.428;2022-09-02T16:42:38;25.50;35.20
60033;DHT22;45905;50.570;10.428;2022-09-02T16:45:05;25.50;35.20
60033;DHT22;45905;50.570;10.428;2022-09-02T16:47:33;25.40;35.20
60033;DHT22;45905;50.570;10.428;2022-09-02T16:50:01;25.40;35.00
60033;DHT22;45905;50.570;10.428;2022-09-02T16:52:29;25.30;34.80
60033;DHT22;45905;50.570;10.428;2022-09-02T16:55:00;25.20;35.50
60033;DHT22;45905;50.570;10.428;2022-09-02T16:57:27;25.10;35.30
60033;DHT22;45905;50.570;10.428;2022-09-02T16:59:55;25.10;36.40
60033;DHT22;45905;50.570;10.428;2022-09-02T17:02:22;25.00;35.70
60033;DHT22;45905;50.570;10.428;2022-09-02T17:04:49;24.90;35.70
60033;DHT22;45905;50.570;10.428;2022-09-02T17:07:18;24.90;36.30
60033;DHT22;45905;50.570;10.428;2022-09-02T17:09:45;24.80;36.30
60033;DHT22;45905;50.570;10.428;2022-09-02T17:12:13;24.70;36.40
60033;DHT22;45905;50.570;10.428;2022-09-02T17:14:40;24.70;36.60
60033;DHT22;45905;50.570;10.428;2022-09-02T17:17:07;24.60;36.70